Fairbury, Illinois
Current Conditions -  °F | °C
As of 7:35 AM on Saturday 01 Nov 2014 (Local Time) from KPNT Reporting Station
Clear Clear  
Wind Chill: 20°   Ceiling: Unl
Heat Index: 29°   Visibility: 10mi
Dew Point: 23°   Wind: 10mph
Humidity: 78%   Direction: 320°NW
Pressure: 30.43"   Gusts: NA
Location:  40.75°N, 88.51°W
Report Text: KPNT 011235Z AUTO 32009KT 10SM CLR M02/M05 A3043 RMK AO2 T10161049
Loading
Personal Weather Stations






























Interactive Weather Map
Tropical Storm Tracking
New forecast layout! Learn more

10-Day Weather Forecast

Advertisements
Track Severe Weather on mobile